createdAt,value
2022-09-13T00:01:13.506Z,100243.75
2022-09-13T00:03:43.047Z,100239.66
2022-09-13T00:06:21.275Z,100237.88
2022-09-13T00:08:49.731Z,100243.31
2022-09-13T00:11:26.714Z,100239.31
2022-09-13T00:13:58.342Z,100249.03
2022-09-13T00:16:28.629Z,100243.91
2022-09-13T00:18:57.097Z,100253.31
2022-09-13T00:21:25.447Z,100252.63
2022-09-13T00:23:55.525Z,100245.75
2022-09-13T00:26:28.489Z,100247.72
2022-09-13T00:28:59.438Z,100249.66
2022-09-13T00:31:28.793Z,100236.56
2022-09-13T00:34:00.587Z,100242.63
2022-09-13T00:36:29.242Z,100243.50
2022-09-13T00:38:57.091Z,100238.41
2022-09-13T00:41:25.414Z,100242.09
2022-09-13T00:43:58.958Z,100242.19
2022-09-13T00:46:48.545Z,100251.78
2022-09-13T00:49:31.792Z,100237.19
2022-09-13T00:52:04.456Z,100251.00
2022-09-13T00:54:40.736Z,100243.28
2022-09-13T00:57:11.667Z,100223.69
2022-09-13T00:59:49.738Z,100234.75
2022-09-13T01:02:17.730Z,100236.66
2022-09-13T01:04:46.035Z,100239.34
2022-09-13T01:07:16.032Z,100246.44
2022-09-13T01:09:46.150Z,100246.31
2022-09-13T01:12:25.699Z,100254.84
2022-09-13T01:14:57.552Z,100254.13
2022-09-13T01:17:28.266Z,100254.38
2022-09-13T01:19:56.108Z,100250.25
2022-09-13T01:22:55.739Z,100245.81
2022-09-13T01:25:45.028Z,100243.31
2022-09-13T01:28:40.727Z,100247.81
2022-09-13T01:31:47.490Z,100249.69
2022-09-13T01:34:21.400Z,100231.44
2022-09-13T01:37:15.774Z,100245.50
2022-09-13T01:40:21.108Z,100250.72
2022-09-13T01:43:03.034Z,100246.78
2022-09-13T01:45:41.347Z,100248.88
2022-09-13T01:48:32.256Z,100250.00
2022-09-13T01:51:26.617Z,100246.78
2022-09-13T01:54:33.708Z,100244.38
2022-09-13T01:57:15.881Z,100235.75
2022-09-13T02:00:01.349Z,100233.19
2022-09-13T02:02:45.923Z,100220.22
2022-09-13T02:05:17.249Z,100224.53
2022-09-13T02:07:53.333Z,100220.41
2022-09-13T02:10:33.977Z,100215.31
2022-09-13T02:13:04.475Z,100226.50
2022-09-13T02:15:47.752Z,100218.06
2022-09-13T02:18:22.006Z,100228.50
2022-09-13T02:20:52.913Z,100223.16
2022-09-13T02:23:31.325Z,100220.63
2022-09-13T02:26:02.758Z,100219.91
2022-09-13T02:28:40.075Z,100219.22
2022-09-13T02:31:11.934Z,100222.53
2022-09-13T02:33:52.168Z,100215.69
2022-09-13T02:36:24.458Z,100208.47
2022-09-13T02:39:01.155Z,100211.25
2022-09-13T02:41:48.079Z,100211.56
2022-09-13T02:44:24.127Z,100203.00
2022-09-13T02:46:57.740Z,100204.91
2022-09-13T02:49:51.609Z,100202.31
2022-09-13T02:52:46.530Z,100201.34
2022-09-13T02:55:45.648Z,100202.09
2022-09-13T02:58:27.294Z,100204.81
2022-09-13T03:00:55.907Z,100203.19
2022-09-13T03:03:25.375Z,100201.53
2022-09-13T03:05:53.880Z,100186.91
2022-09-13T03:08:23.829Z,100186.91
2022-09-13T03:11:30.284Z,100177.34
2022-09-13T03:14:07.153Z,100182.75
2022-09-13T03:16:46.897Z,100177.84
2022-09-13T03:19:36.139Z,100174.44
2022-09-13T03:22:22.440Z,100172.75
2022-09-13T03:24:53.084Z,100174.53
2022-09-13T03:27:24.664Z,100174.66
2022-09-13T03:30:14.173Z,100172.88
2022-09-13T03:33:01.947Z,100174.72
2022-09-13T03:35:41.318Z,100168.69
2022-09-13T03:38:17.663Z,100172.19
2022-09-13T03:40:49.875Z,100174.84
2022-09-13T03:43:27.369Z,100173.03
2022-09-13T03:46:03.908Z,100167.84
2022-09-13T03:48:36.803Z,100166.13
2022-09-13T03:51:05.980Z,100167.88
2022-09-13T03:53:39.590Z,100165.09
2022-09-13T03:56:19.820Z,100158.09
2022-09-13T03:58:48.496Z,100166.69
2022-09-13T04:01:21.970Z,100158.06
2022-09-13T04:03:55.878Z,100156.25
2022-09-13T04:06:24.707Z,100152.38
2022-09-13T04:08:52.523Z,100155.03
2022-09-13T04:11:21.606Z,100155.06
2022-09-13T04:13:49.410Z,100151.50
2022-09-13T04:16:17.662Z,100156.56
2022-09-13T04:18:45.599Z,100160.69
2022-09-13T04:21:13.482Z,100158.22
2022-09-13T04:23:41.248Z,100153.25
2022-09-13T04:26:09.668Z,100153.22
2022-09-13T04:28:37.334Z,100157.56
2022-09-13T04:31:05.318Z,100154.75
2022-09-13T04:33:33.013Z,100154.50
2022-09-13T04:36:01.226Z,100152.78
2022-09-13T04:38:31.382Z,100157.25
2022-09-13T04:40:58.983Z,100164.63
2022-09-13T04:43:26.594Z,100164.38
2022-09-13T04:45:54.492Z,100160.13
2022-09-13T04:48:22.158Z,100165.63
2022-09-13T04:50:49.704Z,100154.31
2022-09-13T04:53:18.330Z,100162.97
2022-09-13T04:55:46.284Z,100155.94
2022-09-13T04:58:13.856Z,100156.63
2022-09-13T05:00:41.717Z,100166.00
2022-09-13T05:03:09.320Z,100172.53
2022-09-13T05:05:36.969Z,100171.25
2022-09-13T05:08:04.788Z,100167.75
2022-09-13T05:10:32.525Z,100162.13
2022-09-13T05:13:00.086Z,100165.84
2022-09-13T05:15:27.944Z,100163.25
2022-09-13T05:17:55.718Z,100161.97
2022-09-13T05:20:23.383Z,100157.38
2022-09-13T05:22:51.185Z,100151.75
2022-09-13T05:25:21.971Z,100149.13
2022-09-13T05:27:52.024Z,100150.41
2022-09-13T05:30:19.632Z,100151.63
2022-09-13T05:32:47.182Z,100155.56
2022-09-13T05:35:15.445Z,100152.63
2022-09-13T05:37:43.034Z,100155.19
2022-09-13T05:40:12.311Z,100155.13
2022-09-13T05:42:40.945Z,100153.88
2022-09-13T05:45:09.410Z,100158.50
2022-09-13T05:47:37.023Z,100164.56
2022-09-13T05:50:23.114Z,100164.47
2022-09-13T05:52:54.634Z,100165.38
2022-09-13T05:55:23.206Z,100149.69
2022-09-13T05:57:51.050Z,100148.41
2022-09-13T06:00:18.967Z,100146.38
2022-09-13T06:02:47.950Z,100149.78
2022-09-13T06:05:15.560Z,100144.38
2022-09-13T06:07:43.768Z,100135.28
2022-09-13T06:10:12.130Z,100134.66
2022-09-13T06:12:39.919Z,100127.00
2022-09-13T06:15:09.191Z,100127.59
2022-09-13T06:17:37.088Z,100131.16
2022-09-13T06:20:05.409Z,100124.91
2022-09-13T06:22:35.288Z,100125.94
2022-09-13T06:25:03.673Z,100130.09
2022-09-13T06:27:31.702Z,100129.97
2022-09-13T06:29:59.285Z,100131.84
2022-09-13T06:32:27.189Z,100133.69
2022-09-13T06:34:54.793Z,100135.03
2022-09-13T06:37:22.585Z,100136.00
2022-09-13T06:39:50.375Z,100137.13
2022-09-13T06:42:18.175Z,100140.75
2022-09-13T06:44:48.600Z,100135.81
2022-09-13T06:47:16.410Z,100132.53
2022-09-13T06:49:44.222Z,100134.13
2022-09-13T06:52:11.840Z,100140.72
2022-09-13T06:54:39.723Z,100132.50
2022-09-13T06:57:07.361Z,100145.19
2022-09-13T06:59:35.125Z,100143.94
2022-09-13T07:02:03.409Z,100141.56
2022-09-13T07:04:31.659Z,100140.50
2022-09-13T07:07:00.130Z,100147.31
2022-09-13T07:09:28.319Z,100145.31
2022-09-13T07:11:56.983Z,100140.81
2022-09-13T07:14:27.882Z,100141.38
2022-09-13T07:16:57.408Z,100138.47
2022-09-13T07:19:27.592Z,100139.34
2022-09-13T07:21:56.951Z,100130.81
2022-09-13T07:24:25.647Z,100138.84
2022-09-13T07:26:53.989Z,100127.44
2022-09-13T07:29:23.756Z,100128.28
2022-09-13T07:31:54.526Z,100120.66
2022-09-13T07:34:24.682Z,100120.06
2022-09-13T07:36:52.711Z,100118.56
2022-09-13T07:39:23.007Z,100115.38
2022-09-13T07:41:51.893Z,100117.63
2022-09-13T07:44:20.013Z,100120.72
2022-09-13T07:46:48.067Z,100121.22
2022-09-13T07:49:18.502Z,100129.59
2022-09-13T07:51:46.443Z,100124.34
2022-09-13T07:54:17.687Z,100122.50
2022-09-13T07:56:50.159Z,100124.44
2022-09-13T07:59:19.614Z,100117.94
2022-09-13T08:01:50.072Z,100124.94
2022-09-13T08:04:19.967Z,100123.88
2022-09-13T08:06:48.013Z,100124.00
2022-09-13T08:09:16.955Z,100118.06
2022-09-13T08:11:54.093Z,100118.97
2022-09-13T08:14:23.413Z,100118.59
2022-09-13T08:16:56.834Z,100110.75
2022-09-13T08:19:24.721Z,100107.81
2022-09-13T08:21:52.386Z,100106.94
2022-09-13T08:24:21.608Z,100105.09
2022-09-13T08:26:52.031Z,100095.50
2022-09-13T08:29:20.145Z,100091.72
2022-09-13T08:31:48.058Z,100089.91
2022-09-13T08:34:16.637Z,100086.75
2022-09-13T08:36:44.526Z,100080.38
2022-09-13T08:39:15.963Z,100078.44
2022-09-13T08:42:11.980Z,100076.03
2022-09-13T08:44:45.355Z,100071.22
2022-09-13T08:47:35.370Z,100074.06
2022-09-13T08:50:18.838Z,100065.50
2022-09-13T08:52:57.745Z,100058.69
2022-09-13T08:55:30.898Z,100068.50
2022-09-13T08:58:25.226Z,100060.94
2022-09-13T09:01:40.227Z,100057.09
2022-09-13T09:04:11.215Z,100067.19
2022-09-13T09:06:39.142Z,100058.88
2022-09-13T09:09:19.527Z,100065.63
2022-09-13T09:11:59.567Z,100058.88
2022-09-13T09:14:35.909Z,100062.53
2022-09-13T09:17:18.657Z,100061.50
2022-09-13T09:20:07.469Z,100055.22
2022-09-13T09:22:36.299Z,100065.53
2022-09-13T09:25:04.967Z,100050.03
2022-09-13T09:27:33.837Z,100047.31
2022-09-13T09:30:02.205Z,100043.97
2022-09-13T09:32:47.695Z,100045.75
2022-09-13T09:35:31.480Z,100042.16
2022-09-13T09:38:32.073Z,100027.69
2022-09-13T09:41:14.486Z,100031.94
2022-09-13T09:44:11.212Z,100022.50
2022-09-13T09:46:42.292Z,100012.25
2022-09-13T09:49:40.907Z,100019.69
2022-09-13T09:52:14.746Z,100012.84
2022-09-13T09:54:42.356Z,100013.78
2022-09-13T09:57:11.502Z,100017.63
2022-09-13T09:59:39.418Z,100014.22
2022-09-13T10:02:21.836Z,100013.84
2022-09-13T10:05:02.952Z,100005.53
2022-09-13T10:07:34.465Z,99999.63
2022-09-13T10:10:08.579Z,99996.34
2022-09-13T10:12:39.971Z,99987.78
2022-09-13T10:15:20.179Z,99987.84
2022-09-13T10:18:32.938Z,99978.78
2022-09-13T10:21:23.430Z,99979.66
2022-09-13T10:23:51.714Z,99967.28
2022-09-13T10:26:28.930Z,99975.63
2022-09-13T10:29:16.633Z,99971.97
2022-09-13T10:31:48.319Z,99955.66
2022-09-13T10:34:32.935Z,99963.69
2022-09-13T10:37:11.646Z,99953.97
2022-09-13T10:40:02.024Z,99954.44
2022-09-13T10:42:31.391Z,99959.34
2022-09-13T10:45:19.269Z,99954.22
2022-09-13T10:47:48.771Z,99957.56
2022-09-13T10:50:19.835Z,99943.75
2022-09-13T10:52:51.782Z,99945.31
2022-09-13T10:55:20.485Z,99941.69
2022-09-13T10:57:50.548Z,99942.63
2022-09-13T11:00:22.934Z,99945.88
2022-09-13T11:03:24.447Z,99946.38
2022-09-13T11:06:09.299Z,99944.00
2022-09-13T11:09:18.471Z,99940.56
2022-09-13T11:11:55.109Z,99939.31
2022-09-13T11:14:50.445Z,99930.78
2022-09-13T11:17:24.032Z,99928.28
2022-09-13T11:20:23.071Z,99921.47
2022-09-13T11:23:15.327Z,99926.00
2022-09-13T11:25:54.260Z,99920.31
2022-09-13T11:28:28.002Z,99921.16
2022-09-13T11:31:25.808Z,99922.06
2022-09-13T11:34:12.068Z,99909.97
2022-09-13T11:36:58.153Z,99905.75
2022-09-13T11:39:28.653Z,99901.13
2022-09-13T11:42:05.322Z,99896.34
2022-09-13T11:44:57.574Z,99899.13
2022-09-13T11:47:47.469Z,99899.44
2022-09-13T11:50:18.328Z,99888.22
2022-09-13T11:53:01.600Z,99889.88
2022-09-13T11:55:46.092Z,99881.66
2022-09-13T11:58:17.948Z,99879.66
2022-09-13T12:00:54.444Z,99874.97
2022-09-13T12:03:47.038Z,99875.72
2022-09-13T12:06:35.506Z,99858.88
2022-09-13T12:09:11.334Z,99859.75
2022-09-13T12:11:53.219Z,99859.03
2022-09-13T12:14:29.418Z,99849.34
2022-09-13T12:17:03.777Z,99851.31
2022-09-13T12:19:46.405Z,99838.53
2022-09-13T12:22:15.095Z,99836.03
2022-09-13T12:24:50.355Z,99827.88
2022-09-13T12:27:40.450Z,99822.50
2022-09-13T12:30:19.865Z,99821.28
2022-09-13T12:32:49.504Z,99817.22
2022-09-13T12:35:29.203Z,99807.06
2022-09-13T12:38:12.368Z,99797.59
2022-09-13T12:40:48.638Z,99802.84
2022-09-13T12:43:25.557Z,99790.03
2022-09-13T12:46:03.261Z,99784.53
2022-09-13T12:48:50.481Z,99786.66
2022-09-13T12:51:56.578Z,99783.19
2022-09-13T12:54:48.649Z,99786.44
2022-09-13T12:57:21.799Z,99789.47
2022-09-13T12:59:58.666Z,99795.81
2022-09-13T13:02:36.068Z,99787.72
2022-09-13T13:05:19.231Z,99784.41
2022-09-13T13:07:54.551Z,99783.44
2022-09-13T13:10:33.388Z,99783.78
2022-09-13T13:13:24.954Z,99784.41
2022-09-13T13:15:54.927Z,99787.66
2022-09-13T13:18:30.963Z,99782.84
2022-09-13T13:20:58.809Z,99779.22
2022-09-13T13:23:31.672Z,99770.91
2022-09-13T13:26:07.999Z,99764.88
2022-09-13T13:28:45.123Z,99756.56
2022-09-13T13:31:32.502Z,99752.34
2022-09-13T13:34:08.299Z,99743.28
2022-09-13T13:36:42.175Z,99748.72
2022-09-13T13:39:26.846Z,99742.72
2022-09-13T13:41:55.512Z,99750.28
2022-09-13T13:44:23.326Z,99737.28
2022-09-13T13:47:07.209Z,99735.81
2022-09-13T13:49:38.767Z,99735.31
2022-09-13T13:52:10.016Z,99728.31
2022-09-13T13:54:49.871Z,99722.66
2022-09-13T13:57:25.744Z,99721.34
2022-09-13T14:00:14.736Z,99729.31
2022-09-13T14:02:54.737Z,99719.69
2022-09-13T14:05:47.136Z,99714.97
2022-09-13T14:08:32.406Z,99719.41
2022-09-13T14:11:37.219Z,99724.38
2022-09-13T14:14:10.794Z,99725.81
2022-09-13T14:17:15.378Z,99724.97
2022-09-13T14:20:10.020Z,99715.75
2022-09-13T14:22:37.913Z,99719.63
2022-09-13T14:25:23.922Z,99709.72
2022-09-13T14:27:56.953Z,99706.63
2022-09-13T14:30:31.034Z,99696.50
2022-09-13T14:32:59.722Z,99685.78
2022-09-13T14:35:56.252Z,99683.53
2022-09-13T14:38:32.853Z,99683.66
2022-09-13T14:41:14.272Z,99685.69
2022-09-13T14:43:43.748Z,99677.25
2022-09-13T14:46:39.568Z,99669.78
2022-09-13T14:49:17.493Z,99669.53
2022-09-13T14:51:50.351Z,99665.44
2022-09-13T14:54:43.000Z,99665.44
2022-09-13T14:57:33.897Z,99658.22
2022-09-13T15:00:21.302Z,99657.25
2022-09-13T15:02:52.430Z,99650.03
2022-09-13T15:05:24.373Z,99647.38
2022-09-13T15:07:52.393Z,99646.41
2022-09-13T15:10:29.164Z,99649.66
2022-09-13T15:13:05.123Z,99645.19
2022-09-13T15:15:34.539Z,99648.31
2022-09-13T15:18:17.486Z,99646.13
2022-09-13T15:21:18.049Z,99646.56
2022-09-13T15:23:52.154Z,99641.03
2022-09-13T15:26:25.647Z,99623.72
2022-09-13T15:29:02.605Z,99634.06
2022-09-13T15:31:33.541Z,99634.78
2022-09-13T15:34:20.456Z,99629.22
2022-09-13T15:37:13.694Z,99628.16
2022-09-13T15:39:50.186Z,99632.84
2022-09-13T15:42:18.914Z,99627.28
2022-09-13T15:44:47.222Z,99633.19
2022-09-13T15:47:19.649Z,99624.88
2022-09-13T15:49:51.947Z,99624.13
2022-09-13T15:52:21.574Z,99623.63
2022-09-13T15:54:51.160Z,99625.06
2022-09-13T15:57:26.551Z,99618.53
2022-09-13T15:59:56.266Z,99619.38
2022-09-13T16:02:31.038Z,99620.22
2022-09-13T16:04:59.167Z,99620.13
2022-09-13T16:07:27.229Z,99623.00
2022-09-13T16:09:55.037Z,99613.66
2022-09-13T16:12:24.592Z,99611.00
2022-09-13T16:14:54.303Z,99603.00
2022-09-13T16:17:25.061Z,99601.78
2022-09-13T16:19:53.951Z,99600.31
2022-09-13T16:22:22.203Z,99592.25
2022-09-13T16:24:50.490Z,99583.41
2022-09-13T16:27:20.106Z,99582.94
2022-09-13T16:29:49.492Z,99576.53
2022-09-13T16:32:17.214Z,99572.38
2022-09-13T16:34:45.799Z,99581.88
2022-09-13T16:37:17.244Z,99576.34
2022-09-13T16:39:45.640Z,99567.47
2022-09-13T16:42:15.648Z,99574.66
2022-09-13T16:44:43.752Z,99564.13
2022-09-13T16:47:12.003Z,99568.13
2022-09-13T16:49:39.917Z,99569.59
2022-09-13T16:52:09.503Z,99570.09
2022-09-13T16:54:37.414Z,99569.28
2022-09-13T16:57:06.897Z,99568.34
2022-09-13T16:59:34.635Z,99569.47
2022-09-13T17:02:03.642Z,99567.88
2022-09-13T17:04:31.586Z,99567.56
2022-09-13T17:07:01.990Z,99569.91
2022-09-13T17:09:30.867Z,99572.63
2022-09-13T17:11:59.152Z,99572.44
2022-09-13T17:14:27.254Z,99563.75
2022-09-13T17:16:57.158Z,99566.44
2022-09-13T17:19:30.475Z,99549.22
2022-09-13T17:21:58.287Z,99549.22
2022-09-13T17:24:27.447Z,99564.41
2022-09-13T17:26:56.745Z,99557.44
2022-09-13T17:29:25.859Z,99556.59
2022-09-13T17:31:53.760Z,99558.72
2022-09-13T17:34:21.464Z,99568.09
2022-09-13T17:36:51.194Z,99565.06
2022-09-13T17:39:19.787Z,99559.47
2022-09-13T17:41:51.495Z,99556.06
2022-09-13T17:44:21.299Z,99553.84
2022-09-13T17:46:49.200Z,99562.09
2022-09-13T17:49:16.786Z,99557.31
2022-09-13T17:51:44.569Z,99561.13
2022-09-13T17:54:13.172Z,99555.44
2022-09-13T17:56:43.500Z,99556.81
2022-09-13T17:59:12.676Z,99557.44
2022-09-13T18:01:43.459Z,99554.06
2022-09-13T18:04:13.012Z,99546.66
2022-09-13T18:06:42.623Z,99558.13
2022-09-13T18:09:12.063Z,99552.94
2022-09-13T18:11:40.714Z,99548.72
2022-09-13T18:14:16.060Z,99539.13
2022-09-13T18:16:44.809Z,99554.81
2022-09-13T18:19:13.119Z,99549.91
2022-09-13T18:21:41.328Z,99552.41
2022-09-13T18:24:08.994Z,99549.16
2022-09-13T18:26:36.924Z,99548.25
2022-09-13T18:29:11.920Z,99558.34
2022-09-13T18:31:41.820Z,99535.09
2022-09-13T18:34:12.551Z,99541.22
2022-09-13T18:36:42.387Z,99531.50
2022-09-13T18:39:16.817Z,99524.97
2022-09-13T18:41:46.850Z,99530.69
2022-09-13T18:44:16.979Z,99530.47
2022-09-13T18:46:46.169Z,99519.91
2022-09-13T18:49:15.074Z,99516.31
2022-09-13T18:51:45.015Z,99508.06
2022-09-13T18:54:16.108Z,99502.47
2022-09-13T18:56:47.874Z,99504.50
2022-09-13T18:59:16.066Z,99505.31
2022-09-13T19:01:45.572Z,99497.91
2022-09-13T19:04:19.426Z,99501.94
2022-09-13T19:06:52.063Z,99499.91
2022-09-13T19:09:20.967Z,99489.91
2022-09-13T19:11:51.397Z,99487.66
2022-09-13T19:14:27.043Z,99486.94
2022-09-13T19:17:00.452Z,99485.69
2022-09-13T19:19:28.962Z,99479.13
2022-09-13T19:21:56.794Z,99480.59
2022-09-13T19:24:24.787Z,99481.34
2022-09-13T19:26:53.446Z,99486.41
2022-09-13T19:29:23.126Z,99484.63
2022-09-13T19:31:52.788Z,99471.41
2022-09-13T19:34:22.536Z,99469.22
2022-09-13T19:36:57.224Z,99463.22
2022-09-13T19:39:29.202Z,99462.84
2022-09-13T19:42:00.436Z,99459.25
2022-09-13T19:44:28.580Z,99454.84
2022-09-13T19:47:36.142Z,99451.03
2022-09-13T19:49:45.285Z,99451.47
2022-09-13T19:52:13.081Z,99450.72
2022-09-13T19:54:40.988Z,99450.03
2022-09-13T19:57:09.677Z,99442.63
2022-09-13T19:59:37.342Z,99446.22
2022-09-13T20:02:05.212Z,99441.19
2022-09-13T20:04:33.724Z,99448.38
2022-09-13T20:07:01.522Z,99449.59
2022-09-13T20:09:30.421Z,99456.78
2022-09-13T20:12:00.573Z,99447.91
2022-09-13T20:14:28.513Z,99434.81
2022-09-13T20:16:56.639Z,99439.97
2022-09-13T20:19:40.088Z,99428.06
2022-09-13T20:22:11.426Z,99434.59
2022-09-13T20:24:39.404Z,99429.75
2022-09-13T20:27:07.157Z,99396.78
2022-09-13T20:29:35.191Z,99419.72
2022-09-13T20:32:03.404Z,99413.13
2022-09-13T20:34:31.175Z,99410.47
2022-09-13T20:36:58.910Z,99413.13
2022-09-13T20:39:26.822Z,99410.47
2022-09-13T20:41:54.819Z,99404.41
2022-09-13T20:44:22.665Z,99406.31
2022-09-13T20:46:50.532Z,99405.47
2022-09-13T20:49:18.130Z,99404.81
2022-09-13T20:51:46.987Z,99404.84
2022-09-13T20:54:14.911Z,99401.44
2022-09-13T20:56:42.567Z,99390.09
2022-09-13T20:59:10.386Z,99394.19
2022-09-13T21:01:39.194Z,99392.28
2022-09-13T21:04:06.888Z,99387.69
2022-09-13T21:06:40.220Z,99387.72
2022-09-13T21:09:08.333Z,99389.41
2022-09-13T21:11:38.605Z,99390.03
2022-09-13T21:14:08.574Z,99389.75
2022-09-13T21:16:43.598Z,99385.81
2022-09-13T21:19:11.769Z,99383.91
2022-09-13T21:21:41.984Z,99385.59
2022-09-13T21:24:12.998Z,99381.72
2022-09-13T21:26:42.462Z,99374.53
2022-09-13T21:29:12.390Z,99372.75
2022-09-13T21:31:40.926Z,99374.03
2022-09-13T21:34:14.736Z,99382.66
2022-09-13T21:36:43.432Z,99376.22
2022-09-13T21:39:12.660Z,99371.16
2022-09-13T21:41:40.802Z,99368.53
2022-09-13T21:44:08.537Z,99369.44
2022-09-13T21:46:38.456Z,99368.88
2022-09-13T21:49:10.156Z,99374.63
2022-09-13T21:51:43.926Z,99375.56
2022-09-13T21:54:17.704Z,99375.28
2022-09-13T21:56:52.196Z,99377.41
2022-09-13T21:59:22.072Z,99369.00
2022-09-13T22:01:52.731Z,99371.97
2022-09-13T22:04:27.312Z,99362.25
2022-09-13T22:06:56.815Z,99360.38
2022-09-13T22:09:27.250Z,99358.69
2022-09-13T22:11:56.707Z,99362.59
2022-09-13T22:14:25.303Z,99356.16
2022-09-13T22:16:53.435Z,99356.81
2022-09-13T22:19:23.701Z,99350.34
2022-09-13T22:21:55.753Z,99350.91
2022-09-13T22:24:25.347Z,99337.38
2022-09-13T22:26:55.299Z,99342.47
2022-09-13T22:29:23.485Z,99331.91
2022-09-13T22:31:52.217Z,99335.28
2022-09-13T22:34:24.101Z,99327.06
2022-09-13T22:36:55.588Z,99337.94
2022-09-13T22:39:23.965Z,99330.34
2022-09-13T22:41:52.417Z,99322.88
2022-09-13T22:44:20.151Z,99328.56
2022-09-13T22:46:48.126Z,99323.28
2022-09-13T22:49:18.454Z,99318.75
2022-09-13T22:51:48.016Z,99316.78
2022-09-13T22:54:17.610Z,99311.78
2022-09-13T22:56:46.006Z,99312.41
2022-09-13T22:59:16.944Z,99314.22
2022-09-13T23:01:45.046Z,99313.19
2022-09-13T23:04:13.963Z,99317.16
2022-09-13T23:06:44.033Z,99307.91
2022-09-13T23:09:16.696Z,99307.25
2022-09-13T23:11:45.247Z,99301.88
2022-09-13T23:14:15.671Z,99303.03
2022-09-13T23:16:46.787Z,99300.28
2022-09-13T23:19:17.888Z,99306.09
2022-09-13T23:21:45.543Z,99300.94
2022-09-13T23:24:16.888Z,99299.63
2022-09-13T23:26:45.957Z,99301.53
2022-09-13T23:29:16.806Z,99302.88
2022-09-13T23:31:46.846Z,99294.16
2022-09-13T23:34:15.858Z,99297.53
2022-09-13T23:36:45.102Z,99288.34
2022-09-13T23:39:18.904Z,99289.09
2022-09-13T23:41:48.767Z,99292.69
2022-09-13T23:44:17.327Z,99295.31
2022-09-13T23:46:45.342Z,99291.00
2022-09-13T23:49:13.466Z,99290.56
2022-09-13T23:51:41.633Z,99289.28
2022-09-13T23:54:10.028Z,99286.06
2022-09-13T23:56:37.792Z,99295.75
2022-09-13T23:59:06.418Z,99292.16
